Terminal Aerodrome Forecast
Issued by NWS

Home | Current Version | Previous Version | Text Only | Print | Product List | Glossary On
Versions: 1 2 3 4 5 6 7 8 9 10 11 12 13 14 15 16 17 18
000
FTUS43 KAPX 302300
TAFMBL
TAF
KMBL 302333Z 3100/3124 26008KT P6SM BKN040
     FM310200 28005KT 4SM BR OVC004
     FM311400 33005KT P6SM OVC008
     FM311600 30006KT P6SM BKN015
     FM311800 31006KT P6SM SCT030
      AMD LTD TO CLD VIS AND WIND=

USA.gov is the U.S. government's official web portal to all federal, state and local government web resources and services.